sensor_id;sensor_type;location;lat;lon;timestamp;temperature;humidity
11647;DHT22;5880;52.342;9.662;2023-04-10T00:01:37;8.30;56.70
11647;DHT22;5880;52.342;9.662;2023-04-10T00:04:03;8.20;56.70
11647;DHT22;5880;52.342;9.662;2023-04-10T00:06:30;8.20;56.80
11647;DHT22;5880;52.342;9.662;2023-04-10T00:08:57;8.20;56.80
11647;DHT22;5880;52.342;9.662;2023-04-10T00:11:24;8.10;56.90
11647;DHT22;5880;52.342;9.662;2023-04-10T00:13:50;8.20;57.00
11647;DHT22;5880;52.342;9.662;2023-04-10T00:16:17;8.30;57.00
11647;DHT22;5880;52.342;9.662;2023-04-10T00:18:42;8.20;56.90
11647;DHT22;5880;52.342;9.662;2023-04-10T00:21:08;8.20;57.20
11647;DHT22;5880;52.342;9.662;2023-04-10T00:23:34;8.20;57.40
11647;DHT22;5880;52.342;9.662;2023-04-10T00:26:03;8.20;57.90
11647;DHT22;5880;52.342;9.662;2023-04-10T00:28:28;8.20;58.50
11647;DHT22;5880;52.342;9.662;2023-04-10T00:30:54;8.30;58.20
11647;DHT22;5880;52.342;9.662;2023-04-10T00:33:20;8.30;58.20
11647;DHT22;5880;52.342;9.662;2023-04-10T00:35:45;8.30;58.30
11647;DHT22;5880;52.342;9.662;2023-04-10T00:38:11;8.40;58.20
11647;DHT22;5880;52.342;9.662;2023-04-10T00:40:37;8.40;58.20
11647;DHT22;5880;52.342;9.662;2023-04-10T00:43:03;8.50;58.30
11647;DHT22;5880;52.342;9.662;2023-04-10T00:45:28;8.50;58.20
11647;DHT22;5880;52.342;9.662;2023-04-10T00:47:54;8.50;58.30
11647;DHT22;5880;52.342;9.662;2023-04-10T00:50:21;8.50;58.30
11647;DHT22;5880;52.342;9.662;2023-04-10T00:52:48;8.50;58.30
11647;DHT22;5880;52.342;9.662;2023-04-10T00:55:14;8.60;58.40
11647;DHT22;5880;52.342;9.662;2023-04-10T00:57:44;8.60;58.30
11647;DHT22;5880;52.342;9.662;2023-04-10T01:00:13;8.60;58.40
11647;DHT22;5880;52.342;9.662;2023-04-10T01:02:40;8.60;58.00
11647;DHT22;5880;52.342;9.662;2023-04-10T01:05:06;8.60;57.70
11647;DHT22;5880;52.342;9.662;2023-04-10T01:10:37;8.70;58.40
11647;DHT22;5880;52.342;9.662;2023-04-10T01:13:21;8.50;57.80
11647;DHT22;5880;52.342;9.662;2023-04-10T01:16:01;8.50;58.10
11647;DHT22;5880;52.342;9.662;2023-04-10T01:18:53;8.50;57.90
11647;DHT22;5880;52.342;9.662;2023-04-10T01:21:25;8.40;58.30
11647;DHT22;5880;52.342;9.662;2023-04-10T01:24:02;8.20;57.10
11647;DHT22;5880;52.342;9.662;2023-04-10T01:29:39;8.40;59.20
11647;DHT22;5880;52.342;9.662;2023-04-10T01:32:12;8.30;57.70
11647;DHT22;5880;52.342;9.662;2023-04-10T01:34:44;8.30;58.20
11647;DHT22;5880;52.342;9.662;2023-04-10T01:37:25;8.30;58.50
11647;DHT22;5880;52.342;9.662;2023-04-10T01:39:59;8.30;58.90
11647;DHT22;5880;52.342;9.662;2023-04-10T01:42:29;8.30;59.20
11647;DHT22;5880;52.342;9.662;2023-04-10T01:44:57;8.30;59.10
11647;DHT22;5880;52.342;9.662;2023-04-10T01:47:25;8.30;59.00
11647;DHT22;5880;52.342;9.662;2023-04-10T01:49:52;8.50;59.40
11647;DHT22;5880;52.342;9.662;2023-04-10T01:52:20;8.40;59.10
11647;DHT22;5880;52.342;9.662;2023-04-10T01:54:48;8.40;59.10
11647;DHT22;5880;52.342;9.662;2023-04-10T01:57:14;8.40;59.00
11647;DHT22;5880;52.342;9.662;2023-04-10T01:59:41;8.40;59.10
11647;DHT22;5880;52.342;9.662;2023-04-10T02:02:07;8.70;59.20
11647;DHT22;5880;52.342;9.662;2023-04-10T02:04:35;8.50;59.00
11647;DHT22;5880;52.342;9.662;2023-04-10T02:07:34;8.50;58.90
11647;DHT22;5880;52.342;9.662;2023-04-10T02:10:10;8.50;59.80
11647;DHT22;5880;52.342;9.662;2023-04-10T02:12:52;8.50;59.00
11647;DHT22;5880;52.342;9.662;2023-04-10T02:15:23;8.40;59.10
11647;DHT22;5880;52.342;9.662;2023-04-10T02:17:52;8.50;58.50
11647;DHT22;5880;52.342;9.662;2023-04-10T02:20:21;8.40;58.30
11647;DHT22;5880;52.342;9.662;2023-04-10T02:22:48;8.20;58.50
11647;DHT22;5880;52.342;9.662;2023-04-10T02:25:15;8.40;58.50
11647;DHT22;5880;52.342;9.662;2023-04-10T02:27:41;8.30;58.60
11647;DHT22;5880;52.342;9.662;2023-04-10T02:30:07;8.30;58.60
11647;DHT22;5880;52.342;9.662;2023-04-10T02:32:33;8.30;58.70
11647;DHT22;5880;52.342;9.662;2023-04-10T02:34:59;8.30;58.70
11647;DHT22;5880;52.342;9.662;2023-04-10T02:37:29;8.40;58.80
11647;DHT22;5880;52.342;9.662;2023-04-10T02:39:55;8.20;58.70
11647;DHT22;5880;52.342;9.662;2023-04-10T02:42:21;8.20;58.70
11647;DHT22;5880;52.342;9.662;2023-04-10T02:44:47;8.20;58.70
11647;DHT22;5880;52.342;9.662;2023-04-10T02:47:13;8.20;58.90
11647;DHT22;5880;52.342;9.662;2023-04-10T02:49:38;8.10;58.90
11647;DHT22;5880;52.342;9.662;2023-04-10T02:52:04;8.10;59.00
11647;DHT22;5880;52.342;9.662;2023-04-10T02:54:30;8.10;59.10
11647;DHT22;5880;52.342;9.662;2023-04-10T02:56:56;8.10;59.20
11647;DHT22;5880;52.342;9.662;2023-04-10T02:59:22;8.10;59.20
11647;DHT22;5880;52.342;9.662;2023-04-10T03:01:48;8.10;59.10
11647;DHT22;5880;52.342;9.662;2023-04-10T03:04:14;8.10;59.20
11647;DHT22;5880;52.342;9.662;2023-04-10T03:06:40;8.10;59.10
11647;DHT22;5880;52.342;9.662;2023-04-10T03:09:06;8.00;59.00
11647;DHT22;5880;52.342;9.662;2023-04-10T03:11:31;8.00;59.00
11647;DHT22;5880;52.342;9.662;2023-04-10T03:13:57;8.00;59.10
11647;DHT22;5880;52.342;9.662;2023-04-10T03:16:23;8.00;59.10
11647;DHT22;5880;52.342;9.662;2023-04-10T03:18:48;8.00;59.10
11647;DHT22;5880;52.342;9.662;2023-04-10T03:21:14;8.00;59.10
11647;DHT22;5880;52.342;9.662;2023-04-10T03:23:40;7.90;59.10
11647;DHT22;5880;52.342;9.662;2023-04-10T03:26:06;8.00;59.20
11647;DHT22;5880;52.342;9.662;2023-04-10T03:28:32;7.90;59.30
11647;DHT22;5880;52.342;9.662;2023-04-10T03:30:58;7.90;59.40
11647;DHT22;5880;52.342;9.662;2023-04-10T03:33:23;7.90;59.40
11647;DHT22;5880;52.342;9.662;2023-04-10T03:35:49;7.90;59.30
11647;DHT22;5880;52.342;9.662;2023-04-10T03:38:15;7.90;59.20
11647;DHT22;5880;52.342;9.662;2023-04-10T03:40:40;7.90;59.10
11647;DHT22;5880;52.342;9.662;2023-04-10T03:43:06;7.90;59.00
11647;DHT22;5880;52.342;9.662;2023-04-10T03:45:32;7.90;59.00
11647;DHT22;5880;52.342;9.662;2023-04-10T03:47:58;7.80;58.80
11647;DHT22;5880;52.342;9.662;2023-04-10T03:50:24;7.80;58.80
11647;DHT22;5880;52.342;9.662;2023-04-10T03:52:50;7.80;58.80
11647;DHT22;5880;52.342;9.662;2023-04-10T03:55:16;7.70;58.90
11647;DHT22;5880;52.342;9.662;2023-04-10T03:57:46;7.70;58.80
11647;DHT22;5880;52.342;9.662;2023-04-10T04:00:13;7.70;59.00
11647;DHT22;5880;52.342;9.662;2023-04-10T04:02:41;7.60;59.00
11647;DHT22;5880;52.342;9.662;2023-04-10T04:05:07;7.60;58.80
11647;DHT22;5880;52.342;9.662;2023-04-10T04:07:33;7.60;58.90
11647;DHT22;5880;52.342;9.662;2023-04-10T04:09:59;7.50;58.90
11647;DHT22;5880;52.342;9.662;2023-04-10T04:12:26;7.50;59.10
11647;DHT22;5880;52.342;9.662;2023-04-10T04:14:51;7.50;59.20
11647;DHT22;5880;52.342;9.662;2023-04-10T04:17:17;7.70;59.20
11647;DHT22;5880;52.342;9.662;2023-04-10T04:19:43;7.50;59.20
11647;DHT22;5880;52.342;9.662;2023-04-10T04:22:09;7.40;59.00
11647;DHT22;5880;52.342;9.662;2023-04-10T04:24:35;7.40;59.20
11647;DHT22;5880;52.342;9.662;2023-04-10T04:27:01;7.40;59.20
11647;DHT22;5880;52.342;9.662;2023-04-10T04:29:27;7.40;59.10
11647;DHT22;5880;52.342;9.662;2023-04-10T04:31:52;7.40;59.30
11647;DHT22;5880;52.342;9.662;2023-04-10T04:34:18;7.40;59.30
11647;DHT22;5880;52.342;9.662;2023-04-10T04:36:44;7.40;59.40
11647;DHT22;5880;52.342;9.662;2023-04-10T04:39:09;7.40;59.40
11647;DHT22;5880;52.342;9.662;2023-04-10T04:41:35;7.30;59.50
11647;DHT22;5880;52.342;9.662;2023-04-10T04:44:01;7.40;59.50
11647;DHT22;5880;52.342;9.662;2023-04-10T04:46:27;7.40;59.60
11647;DHT22;5880;52.342;9.662;2023-04-10T04:48:53;7.30;59.70
11647;DHT22;5880;52.342;9.662;2023-04-10T04:51:19;7.30;59.70
11647;DHT22;5880;52.342;9.662;2023-04-10T04:53:44;7.40;59.70
11647;DHT22;5880;52.342;9.662;2023-04-10T04:56:10;7.30;59.80
11647;DHT22;5880;52.342;9.662;2023-04-10T04:58:36;7.30;59.90
11647;DHT22;5880;52.342;9.662;2023-04-10T05:01:02;7.40;60.10
11647;DHT22;5880;52.342;9.662;2023-04-10T05:03:28;7.40;60.20
11647;DHT22;5880;52.342;9.662;2023-04-10T05:05:54;7.40;60.30
11647;DHT22;5880;52.342;9.662;2023-04-10T05:08:20;7.40;60.40
11647;DHT22;5880;52.342;9.662;2023-04-10T05:10:45;7.50;60.70
11647;DHT22;5880;52.342;9.662;2023-04-10T05:13:12;7.50;61.00
11647;DHT22;5880;52.342;9.662;2023-04-10T05:15:39;7.60;61.20
11647;DHT22;5880;52.342;9.662;2023-04-10T05:18:05;7.70;61.50
11647;DHT22;5880;52.342;9.662;2023-04-10T05:20:34;7.70;61.70
11647;DHT22;5880;52.342;9.662;2023-04-10T05:23:00;7.80;61.90
11647;DHT22;5880;52.342;9.662;2023-04-10T05:25:26;7.90;61.90
11647;DHT22;5880;52.342;9.662;2023-04-10T05:27:52;8.00;61.80
11647;DHT22;5880;52.342;9.662;2023-04-10T05:30:17;8.10;61.90
11647;DHT22;5880;52.342;9.662;2023-04-10T05:32:43;8.30;61.90
11647;DHT22;5880;52.342;9.662;2023-04-10T05:35:10;8.30;61.90
11647;DHT22;5880;52.342;9.662;2023-04-10T05:37:36;8.90;62.20
11647;DHT22;5880;52.342;9.662;2023-04-10T05:40:03;8.60;61.90
11647;DHT22;5880;52.342;9.662;2023-04-10T05:42:29;8.70;62.10
11647;DHT22;5880;52.342;9.662;2023-04-10T05:44:55;8.80;62.10
11647;DHT22;5880;52.342;9.662;2023-04-10T05:47:20;8.90;62.20
11647;DHT22;5880;52.342;9.662;2023-04-10T05:49:46;9.00;62.20
11647;DHT22;5880;52.342;9.662;2023-04-10T05:52:12;9.10;62.20
11647;DHT22;5880;52.342;9.662;2023-04-10T05:54:37;9.20;62.10
11647;DHT22;5880;52.342;9.662;2023-04-10T05:57:03;9.30;62.00
11647;DHT22;5880;52.342;9.662;2023-04-10T05:59:29;9.40;61.80
11647;DHT22;5880;52.342;9.662;2023-04-10T06:01:56;9.60;61.70
11647;DHT22;5880;52.342;9.662;2023-04-10T06:04:22;9.60;61.50
11647;DHT22;5880;52.342;9.662;2023-04-10T06:06:47;9.70;61.60
11647;DHT22;5880;52.342;9.662;2023-04-10T06:09:13;9.80;61.80
11647;DHT22;5880;52.342;9.662;2023-04-10T06:11:39;9.90;62.00
11647;DHT22;5880;52.342;9.662;2023-04-10T06:14:04;10.10;62.60
11647;DHT22;5880;52.342;9.662;2023-04-10T06:16:30;10.30;63.60
11647;DHT22;5880;52.342;9.662;2023-04-10T06:18:56;10.50;64.70
11647;DHT22;5880;52.342;9.662;2023-04-10T06:21:22;10.90;65.90
11647;DHT22;5880;52.342;9.662;2023-04-10T06:23:48;11.20;66.80
11647;DHT22;5880;52.342;9.662;2023-04-10T06:26:13;11.70;67.20
11647;DHT22;5880;52.342;9.662;2023-04-10T06:28:39;12.20;68.10
11647;DHT22;5880;52.342;9.662;2023-04-10T06:31:06;12.70;68.20
11647;DHT22;5880;52.342;9.662;2023-04-10T06:33:31;13.20;66.40
11647;DHT22;5880;52.342;9.662;2023-04-10T06:36:00;13.60;65.00
11647;DHT22;5880;52.342;9.662;2023-04-10T06:38:26;14.00;63.50
11647;DHT22;5880;52.342;9.662;2023-04-10T06:40:52;14.30;63.00
11647;DHT22;5880;52.342;9.662;2023-04-10T06:43:17;14.60;62.70
11647;DHT22;5880;52.342;9.662;2023-04-10T06:45:44;14.90;63.00
11647;DHT22;5880;52.342;9.662;2023-04-10T06:48:10;15.20;63.10
11647;DHT22;5880;52.342;9.662;2023-04-10T06:50:36;15.60;63.40
11647;DHT22;5880;52.342;9.662;2023-04-10T06:53:02;16.00;63.20
11647;DHT22;5880;52.342;9.662;2023-04-10T06:55:28;16.40;62.50
11647;DHT22;5880;52.342;9.662;2023-04-10T06:57:54;16.70;61.90
11647;DHT22;5880;52.342;9.662;2023-04-10T07:00:21;17.10;61.40
11647;DHT22;5880;52.342;9.662;2023-04-10T07:02:48;17.60;60.60
11647;DHT22;5880;52.342;9.662;2023-04-10T07:05:14;18.00;60.80
11647;DHT22;5880;52.342;9.662;2023-04-10T07:07:41;18.30;60.60
11647;DHT22;5880;52.342;9.662;2023-04-10T07:10:07;18.70;59.00
11647;DHT22;5880;52.342;9.662;2023-04-10T07:12:33;19.10;58.60
11647;DHT22;5880;52.342;9.662;2023-04-10T07:14:58;19.40;56.70
11647;DHT22;5880;52.342;9.662;2023-04-10T07:17:24;19.70;56.50
11647;DHT22;5880;52.342;9.662;2023-04-10T07:19:50;20.00;56.00
11647;DHT22;5880;52.342;9.662;2023-04-10T07:22:16;20.30;55.50
11647;DHT22;5880;52.342;9.662;2023-04-10T07:24:41;20.60;54.80
11647;DHT22;5880;52.342;9.662;2023-04-10T07:27:07;20.90;53.90
11647;DHT22;5880;52.342;9.662;2023-04-10T07:29:33;21.20;53.40
11647;DHT22;5880;52.342;9.662;2023-04-10T07:31:59;21.40;52.50
11647;DHT22;5880;52.342;9.662;2023-04-10T07:34:24;21.70;51.40
11647;DHT22;5880;52.342;9.662;2023-04-10T07:36:50;21.90;51.60
11647;DHT22;5880;52.342;9.662;2023-04-10T07:39:16;22.10;48.90
11647;DHT22;5880;52.342;9.662;2023-04-10T07:41:42;22.30;50.30
11647;DHT22;5880;52.342;9.662;2023-04-10T07:44:08;22.60;50.20
11647;DHT22;5880;52.342;9.662;2023-04-10T07:46:34;22.90;48.70
11647;DHT22;5880;52.342;9.662;2023-04-10T07:49:01;23.10;48.10
11647;DHT22;5880;52.342;9.662;2023-04-10T07:51:28;23.30;47.50
11647;DHT22;5880;52.342;9.662;2023-04-10T07:53:53;23.50;46.40
11647;DHT22;5880;52.342;9.662;2023-04-10T07:56:20;23.70;45.60
11647;DHT22;5880;52.342;9.662;2023-04-10T07:58:47;23.80;44.60
11647;DHT22;5880;52.342;9.662;2023-04-10T08:01:14;23.90;44.50
11647;DHT22;5880;52.342;9.662;2023-04-10T08:03:41;24.00;43.70
11647;DHT22;5880;52.342;9.662;2023-04-10T08:06:08;24.00;42.40
11647;DHT22;5880;52.342;9.662;2023-04-10T08:08:36;24.00;41.00
11647;DHT22;5880;52.342;9.662;2023-04-10T08:11:03;23.90;40.20
11647;DHT22;5880;52.342;9.662;2023-04-10T08:13:32;23.80;39.50
11647;DHT22;5880;52.342;9.662;2023-04-10T08:15:57;23.70;39.60
11647;DHT22;5880;52.342;9.662;2023-04-10T08:18:23;23.50;39.80
11647;DHT22;5880;52.342;9.662;2023-04-10T08:20:49;23.40;38.30
11647;DHT22;5880;52.342;9.662;2023-04-10T08:23:14;23.20;39.40
11647;DHT22;5880;52.342;9.662;2023-04-10T08:25:40;23.10;38.10
11647;DHT22;5880;52.342;9.662;2023-04-10T08:28:06;23.00;38.50
11647;DHT22;5880;52.342;9.662;2023-04-10T08:30:31;22.90;38.20
11647;DHT22;5880;52.342;9.662;2023-04-10T08:32:57;22.80;38.10
11647;DHT22;5880;52.342;9.662;2023-04-10T08:35:22;22.70;38.10
11647;DHT22;5880;52.342;9.662;2023-04-10T08:37:48;22.60;38.30
11647;DHT22;5880;52.342;9.662;2023-04-10T08:40:14;22.40;38.10
11647;DHT22;5880;52.342;9.662;2023-04-10T08:42:40;22.30;37.80
11647;DHT22;5880;52.342;9.662;2023-04-10T08:45:06;22.10;37.20
11647;DHT22;5880;52.342;9.662;2023-04-10T08:47:35;22.00;37.00
11647;DHT22;5880;52.342;9.662;2023-04-10T08:50:06;21.70;36.60
11647;DHT22;5880;52.342;9.662;2023-04-10T08:52:41;21.40;36.10
11647;DHT22;5880;52.342;9.662;2023-04-10T08:55:08;21.20;36.70
11647;DHT22;5880;52.342;9.662;2023-04-10T08:57:39;21.00;37.30
11647;DHT22;5880;52.342;9.662;2023-04-10T09:00:06;20.80;37.50
11647;DHT22;5880;52.342;9.662;2023-04-10T09:02:32;20.70;37.60
11647;DHT22;5880;52.342;9.662;2023-04-10T09:04:59;20.60;37.80
11647;DHT22;5880;52.342;9.662;2023-04-10T09:07:28;20.50;38.00
11647;DHT22;5880;52.342;9.662;2023-04-10T09:09:55;20.50;38.20
11647;DHT22;5880;52.342;9.662;2023-04-10T09:12:20;20.50;38.40
11647;DHT22;5880;52.342;9.662;2023-04-10T09:14:46;20.50;39.00
11647;DHT22;5880;52.342;9.662;2023-04-10T09:17:19;20.50;39.60
11647;DHT22;5880;52.342;9.662;2023-04-10T09:19:54;20.60;39.80
11647;DHT22;5880;52.342;9.662;2023-04-10T09:22:30;20.80;39.80
11647;DHT22;5880;52.342;9.662;2023-04-10T09:24:58;21.00;38.30
11647;DHT22;5880;52.342;9.662;2023-04-10T09:27:32;21.10;39.40
11647;DHT22;5880;52.342;9.662;2023-04-10T09:30:03;21.40;39.00
11647;DHT22;5880;52.342;9.662;2023-04-10T09:32:44;21.70;40.60
11647;DHT22;5880;52.342;9.662;2023-04-10T09:35:12;21.90;37.80
11647;DHT22;5880;52.342;9.662;2023-04-10T09:37:40;22.10;39.40
11647;DHT22;5880;52.342;9.662;2023-04-10T09:40:28;22.30;38.60
11647;DHT22;5880;52.342;9.662;2023-04-10T09:42:55;22.50;36.90
11647;DHT22;5880;52.342;9.662;2023-04-10T09:45:21;22.60;37.00
11647;DHT22;5880;52.342;9.662;2023-04-10T09:48:06;22.60;37.20
11647;DHT22;5880;52.342;9.662;2023-04-10T09:50:39;22.70;35.10
11647;DHT22;5880;52.342;9.662;2023-04-10T09:53:06;22.70;35.70
11647;DHT22;5880;52.342;9.662;2023-04-10T09:55:35;22.80;36.30
11647;DHT22;5880;52.342;9.662;2023-04-10T09:58:03;22.90;36.20
11647;DHT22;5880;52.342;9.662;2023-04-10T10:00:46;22.90;35.80
11647;DHT22;5880;52.342;9.662;2023-04-10T10:03:15;22.90;34.80
11647;DHT22;5880;52.342;9.662;2023-04-10T10:05:44;23.00;35.00
11647;DHT22;5880;52.342;9.662;2023-04-10T10:08:12;22.90;34.20
11647;DHT22;5880;52.342;9.662;2023-04-10T10:10:45;22.90;34.60
11647;DHT22;5880;52.342;9.662;2023-04-10T10:13:15;22.90;34.40
11647;DHT22;5880;52.342;9.662;2023-04-10T10:16:04;22.80;33.40
11647;DHT22;5880;52.342;9.662;2023-04-10T10:19:08;22.60;33.50
11647;DHT22;5880;52.342;9.662;2023-04-10T10:21:43;22.40;32.50
11647;DHT22;5880;52.342;9.662;2023-04-10T10:24:09;22.20;33.30
11647;DHT22;5880;52.342;9.662;2023-04-10T10:26:38;22.10;33.40
11647;DHT22;5880;52.342;9.662;2023-04-10T10:29:06;22.00;32.70
11647;DHT22;5880;52.342;9.662;2023-04-10T10:31:37;21.80;33.30
11647;DHT22;5880;52.342;9.662;2023-04-10T10:34:04;21.70;33.20
11647;DHT22;5880;52.342;9.662;2023-04-10T10:36:32;21.70;33.00
11647;DHT22;5880;52.342;9.662;2023-04-10T10:41:59;21.60;31.80
11647;DHT22;5880;52.342;9.662;2023-04-10T10:45:12;21.40;29.90
11647;DHT22;5880;52.342;9.662;2023-04-10T10:47:44;21.30;30.20
11647;DHT22;5880;52.342;9.662;2023-04-10T10:50:13;21.20;31.40
11647;DHT22;5880;52.342;9.662;2023-04-10T10:52:52;21.20;32.00
11647;DHT22;5880;52.342;9.662;2023-04-10T10:58:08;21.00;31.80
11647;DHT22;5880;52.342;9.662;2023-04-10T11:06:17;20.80;31.90
11647;DHT22;5880;52.342;9.662;2023-04-10T11:08:48;20.70;31.10
11647;DHT22;5880;52.342;9.662;2023-04-10T11:11:23;20.70;32.10
11647;DHT22;5880;52.342;9.662;2023-04-10T11:16:18;20.60;31.90
11647;DHT22;5880;52.342;9.662;2023-04-10T11:21:17;20.50;32.70
11647;DHT22;5880;52.342;9.662;2023-04-10T11:29:00;20.40;31.50
11647;DHT22;5880;52.342;9.662;2023-04-10T11:31:26;20.40;32.10
11647;DHT22;5880;52.342;9.662;2023-04-10T11:36:24;20.70;32.50
11647;DHT22;5880;52.342;9.662;2023-04-10T11:39:00;20.40;32.50
11647;DHT22;5880;52.342;9.662;2023-04-10T11:41:31;20.40;32.40
11647;DHT22;5880;52.342;9.662;2023-04-10T11:44:00;20.30;32.30
11647;DHT22;5880;52.342;9.662;2023-04-10T11:46:28;20.30;32.50
11647;DHT22;5880;52.342;9.662;2023-04-10T11:48:58;20.30;32.30
11647;DHT22;5880;52.342;9.662;2023-04-10T11:51:28;20.30;32.10
11647;DHT22;5880;52.342;9.662;2023-04-10T11:54:14;20.30;32.50
11647;DHT22;5880;52.342;9.662;2023-04-10T11:57:01;20.30;32.40
11647;DHT22;5880;52.342;9.662;2023-04-10T11:59:30;20.30;33.20
11647;DHT22;5880;52.342;9.662;2023-04-10T12:02:13;20.40;32.40
11647;DHT22;5880;52.342;9.662;2023-04-10T12:04:41;20.40;31.80
11647;DHT22;5880;52.342;9.662;2023-04-10T12:07:08;20.40;33.20
11647;DHT22;5880;52.342;9.662;2023-04-10T12:09:34;20.40;33.00
11647;DHT22;5880;52.342;9.662;2023-04-10T12:12:02;20.40;32.80
11647;DHT22;5880;52.342;9.662;2023-04-10T12:14:36;20.40;32.20
11647;DHT22;5880;52.342;9.662;2023-04-10T12:17:05;20.40;31.70
11647;DHT22;5880;52.342;9.662;2023-04-10T12:19:33;20.40;32.30
11647;DHT22;5880;52.342;9.662;2023-04-10T12:21:59;20.50;32.70
11647;DHT22;5880;52.342;9.662;2023-04-10T12:24:48;20.60;32.10
11647;DHT22;5880;52.342;9.662;2023-04-10T12:27:25;20.60;32.50
11647;DHT22;5880;52.342;9.662;2023-04-10T12:29:54;20.60;31.70
11647;DHT22;5880;52.342;9.662;2023-04-10T12:32:22;20.60;31.80
11647;DHT22;5880;52.342;9.662;2023-04-10T12:34:56;20.60;31.80
11647;DHT22;5880;52.342;9.662;2023-04-10T12:40:17;20.60;31.90
11647;DHT22;5880;52.342;9.662;2023-04-10T12:42:44;20.60;32.00
11647;DHT22;5880;52.342;9.662;2023-04-10T12:45:10;20.60;32.00
11647;DHT22;5880;52.342;9.662;2023-04-10T12:47:48;20.60;32.00
11647;DHT22;5880;52.342;9.662;2023-04-10T12:50:18;20.70;31.90
11647;DHT22;5880;52.342;9.662;2023-04-10T12:53:04;20.70;32.60
11647;DHT22;5880;52.342;9.662;2023-04-10T12:55:31;20.70;31.90
11647;DHT22;5880;52.342;9.662;2023-04-10T12:57:58;20.80;32.50
11647;DHT22;5880;52.342;9.662;2023-04-10T13:00:41;20.80;33.00
11647;DHT22;5880;52.342;9.662;2023-04-10T13:03:07;20.80;32.10
11647;DHT22;5880;52.342;9.662;2023-04-10T13:05:32;20.80;31.70
11647;DHT22;5880;52.342;9.662;2023-04-10T13:07:58;20.80;32.00
11647;DHT22;5880;52.342;9.662;2023-04-10T13:10:24;20.80;32.00
11647;DHT22;5880;52.342;9.662;2023-04-10T13:12:49;20.80;31.90
11647;DHT22;5880;52.342;9.662;2023-04-10T13:15:15;20.80;32.10
11647;DHT22;5880;52.342;9.662;2023-04-10T13:17:41;20.80;31.60
11647;DHT22;5880;52.342;9.662;2023-04-10T13:20:08;20.80;31.50
11647;DHT22;5880;52.342;9.662;2023-04-10T13:22:34;20.80;31.80
11647;DHT22;5880;52.342;9.662;2023-04-10T13:25:00;20.80;32.00
11647;DHT22;5880;52.342;9.662;2023-04-10T13:27:27;20.80;31.40
11647;DHT22;5880;52.342;9.662;2023-04-10T13:29:54;20.80;32.10
11647;DHT22;5880;52.342;9.662;2023-04-10T13:32:19;20.80;32.10
11647;DHT22;5880;52.342;9.662;2023-04-10T13:34:45;20.80;31.90
11647;DHT22;5880;52.342;9.662;2023-04-10T13:37:11;20.80;31.60
11647;DHT22;5880;52.342;9.662;2023-04-10T13:39:37;20.80;31.20
11647;DHT22;5880;52.342;9.662;2023-04-10T13:42:03;20.90;32.40
11647;DHT22;5880;52.342;9.662;2023-04-10T13:44:29;20.90;31.10
11647;DHT22;5880;52.342;9.662;2023-04-10T13:46:54;20.90;31.30
11647;DHT22;5880;52.342;9.662;2023-04-10T13:49:21;21.00;31.30
11647;DHT22;5880;52.342;9.662;2023-04-10T13:51:47;21.20;31.20
11647;DHT22;5880;52.342;9.662;2023-04-10T13:54:12;21.00;31.60
11647;DHT22;5880;52.342;9.662;2023-04-10T13:56:41;21.00;31.30
11647;DHT22;5880;52.342;9.662;2023-04-10T13:59:07;21.00;31.00
11647;DHT22;5880;52.342;9.662;2023-04-10T14:01:32;21.00;30.80
11647;DHT22;5880;52.342;9.662;2023-04-10T14:03:58;21.00;31.00
11647;DHT22;5880;52.342;9.662;2023-04-10T14:06:24;21.00;30.60
11647;DHT22;5880;52.342;9.662;2023-04-10T14:08:51;20.90;30.60
11647;DHT22;5880;52.342;9.662;2023-04-10T14:11:17;20.90;30.80
11647;DHT22;5880;52.342;9.662;2023-04-10T14:13:42;20.90;30.80
11647;DHT22;5880;52.342;9.662;2023-04-10T14:16:08;20.90;30.70
11647;DHT22;5880;52.342;9.662;2023-04-10T14:18:35;20.80;30.60
11647;DHT22;5880;52.342;9.662;2023-04-10T14:21:00;20.80;30.50
11647;DHT22;5880;52.342;9.662;2023-04-10T14:23:26;20.80;30.80
11647;DHT22;5880;52.342;9.662;2023-04-10T14:25:52;20.80;31.00
11647;DHT22;5880;52.342;9.662;2023-04-10T14:28:18;20.90;30.60
11647;DHT22;5880;52.342;9.662;2023-04-10T14:30:44;20.80;30.80
11647;DHT22;5880;52.342;9.662;2023-04-10T14:33:12;20.80;30.70
11647;DHT22;5880;52.342;9.662;2023-04-10T14:35:39;20.80;30.50
11647;DHT22;5880;52.342;9.662;2023-04-10T14:38:05;20.70;30.70
11647;DHT22;5880;52.342;9.662;2023-04-10T14:40:30;20.70;30.90
11647;DHT22;5880;52.342;9.662;2023-04-10T14:42:56;20.70;31.30
11647;DHT22;5880;52.342;9.662;2023-04-10T14:45:22;20.70;31.30
11647;DHT22;5880;52.342;9.662;2023-04-10T14:47:48;20.80;31.20
11647;DHT22;5880;52.342;9.662;2023-04-10T14:50:13;20.80;31.20
11647;DHT22;5880;52.342;9.662;2023-04-10T14:52:39;20.80;30.70
11647;DHT22;5880;52.342;9.662;2023-04-10T14:55:05;20.80;30.90
11647;DHT22;5880;52.342;9.662;2023-04-10T14:57:31;20.90;31.10
11647;DHT22;5880;52.342;9.662;2023-04-10T14:59:57;20.90;31.00
11647;DHT22;5880;52.342;9.662;2023-04-10T15:02:24;20.90;30.80
11647;DHT22;5880;52.342;9.662;2023-04-10T15:04:50;20.90;30.80
11647;DHT22;5880;52.342;9.662;2023-04-10T15:07:15;20.90;30.40
11647;DHT22;5880;52.342;9.662;2023-04-10T15:09:41;20.80;30.60
11647;DHT22;5880;52.342;9.662;2023-04-10T15:12:09;20.80;30.60
11647;DHT22;5880;52.342;9.662;2023-04-10T15:14:35;20.80;30.60
11647;DHT22;5880;52.342;9.662;2023-04-10T15:17:00;20.80;30.40
11647;DHT22;5880;52.342;9.662;2023-04-10T15:19:26;20.80;30.30
11647;DHT22;5880;52.342;9.662;2023-04-10T15:21:53;20.80;30.30
11647;DHT22;5880;52.342;9.662;2023-04-10T15:24:20;20.80;30.40
11647;DHT22;5880;52.342;9.662;2023-04-10T15:26:46;20.70;30.40
11647;DHT22;5880;52.342;9.662;2023-04-10T15:29:12;20.70;30.70
11647;DHT22;5880;52.342;9.662;2023-04-10T15:31:38;20.80;30.70
11647;DHT22;5880;52.342;9.662;2023-04-10T15:34:04;20.80;30.90
11647;DHT22;5880;52.342;9.662;2023-04-10T15:36:30;20.80;30.90
11647;DHT22;5880;52.342;9.662;2023-04-10T15:38:56;20.80;30.70
11647;DHT22;5880;52.342;9.662;2023-04-10T15:41:24;20.80;30.60
11647;DHT22;5880;52.342;9.662;2023-04-10T15:43:52;20.80;30.40
11647;DHT22;5880;52.342;9.662;2023-04-10T15:46:18;20.80;30.00
11647;DHT22;5880;52.342;9.662;2023-04-10T15:48:44;20.70;29.80
11647;DHT22;5880;52.342;9.662;2023-04-10T15:51:12;20.70;29.80
11647;DHT22;5880;52.342;9.662;2023-04-10T15:53:38;20.60;30.10
11647;DHT22;5880;52.342;9.662;2023-04-10T15:56:04;20.50;29.90
11647;DHT22;5880;52.342;9.662;2023-04-10T15:58:31;20.50;29.90
11647;DHT22;5880;52.342;9.662;2023-04-10T16:00:57;20.40;30.20
11647;DHT22;5880;52.342;9.662;2023-04-10T16:03:23;20.30;30.10
11647;DHT22;5880;52.342;9.662;2023-04-10T16:05:51;20.30;30.20
11647;DHT22;5880;52.342;9.662;2023-04-10T16:08:17;20.20;30.20
11647;DHT22;5880;52.342;9.662;2023-04-10T16:10:43;20.10;30.30
11647;DHT22;5880;52.342;9.662;2023-04-10T16:13:08;20.10;30.30
11647;DHT22;5880;52.342;9.662;2023-04-10T16:15:35;20.10;30.80
11647;DHT22;5880;52.342;9.662;2023-04-10T16:18:03;19.90;30.70
11647;DHT22;5880;52.342;9.662;2023-04-10T16:20:30;19.90;30.90
11647;DHT22;5880;52.342;9.662;2023-04-10T16:22:56;19.80;30.80
11647;DHT22;5880;52.342;9.662;2023-04-10T16:25:23;19.80;31.00
11647;DHT22;5880;52.342;9.662;2023-04-10T16:27:51;19.70;31.10
11647;DHT22;5880;52.342;9.662;2023-04-10T16:30:17;19.60;31.10